createdAt,value
2023-01-29T00:01:08.145Z,-3.79
2023-01-29T00:03:36.256Z,-3.78
2023-01-29T00:06:06.415Z,-3.80
2023-01-29T00:08:38.208Z,-3.84
2023-01-29T00:11:08.082Z,-3.85
2023-01-29T00:13:39.582Z,-3.84
2023-01-29T00:16:09.377Z,-3.87
2023-01-29T00:18:40.648Z,-3.89
2023-01-29T00:21:18.525Z,-3.89
2023-01-29T00:23:47.205Z,-3.86
2023-01-29T00:26:15.595Z,-3.81
2023-01-29T00:28:45.356Z,-3.81
2023-01-29T00:31:20.993Z,-3.84
2023-01-29T00:33:49.374Z,-3.89
2023-01-29T00:36:19.987Z,-3.95
2023-01-29T00:38:54.982Z,-3.98
2023-01-29T00:41:49.170Z,-4.00
2023-01-29T00:44:38.540Z,-4.05
2023-01-29T00:47:29.292Z,-4.07
2023-01-29T00:49:57.462Z,-4.10
2023-01-29T00:52:26.431Z,-4.13
2023-01-29T00:54:56.816Z,-4.16
2023-01-29T00:57:27.247Z,-4.18
2023-01-29T00:59:55.988Z,-4.22
2023-01-29T01:02:42.775Z,-4.21
2023-01-29T01:05:14.823Z,-4.23
2023-01-29T01:07:46.264Z,-4.20
2023-01-29T01:10:22.479Z,-4.16
2023-01-29T01:12:58.476Z,-4.17
2023-01-29T01:15:31.289Z,-4.19
2023-01-29T01:17:59.887Z,-4.17
2023-01-29T01:20:29.396Z,-4.18
2023-01-29T01:22:57.631Z,-4.20
2023-01-29T01:25:26.325Z,-4.20
2023-01-29T01:27:55.450Z,-4.19
2023-01-29T01:30:23.613Z,-4.21
2023-01-29T01:32:51.817Z,-4.21
2023-01-29T01:35:23.864Z,-4.24
2023-01-29T01:37:51.965Z,-4.26
2023-01-29T01:40:21.599Z,-4.25
2023-01-29T01:42:51.393Z,-4.22
2023-01-29T01:45:27.560Z,-4.21
2023-01-29T01:48:17.285Z,-4.22
2023-01-29T01:50:58.977Z,-4.22
2023-01-29T01:53:30.828Z,-4.23
2023-01-29T06:00:58.840Z,-4.87
2023-01-29T06:03:26.906Z,-4.90
2023-01-29T06:05:55.081Z,-4.88
2023-01-29T06:08:23.400Z,-4.82
2023-01-29T06:10:51.428Z,-4.75
2023-01-29T06:13:22.189Z,-4.66
2023-01-29T06:15:51.789Z,-4.54
2023-01-29T06:18:19.963Z,-4.43
2023-01-29T06:20:48.203Z,-4.25
2023-01-29T06:23:16.317Z,-4.09
2023-01-29T06:25:44.288Z,-3.95
2023-01-29T06:28:13.152Z,-3.79
2023-01-29T06:30:41.336Z,-3.68
2023-01-29T06:33:09.340Z,-3.62
2023-01-29T06:35:37.328Z,-3.58
2023-01-29T06:38:05.583Z,-3.56
2023-01-29T06:40:35.671Z,-3.57
2023-01-29T06:43:03.753Z,-3.56
2023-01-29T06:45:32.535Z,-3.49
2023-01-29T06:48:01.579Z,-3.40
2023-01-29T06:50:30.566Z,-3.32
2023-01-29T06:52:59.217Z,-3.28
2023-01-29T06:55:27.609Z,-3.25
2023-01-29T06:57:56.091Z,-3.25
2023-01-29T07:00:24.664Z,-3.26
2023-01-29T07:02:52.742Z,-3.29
2023-01-29T07:05:20.773Z,-3.28
2023-01-29T07:07:49.330Z,-3.28
2023-01-29T07:10:18.670Z,-3.23
2023-01-29T07:12:47.096Z,-3.14
2023-01-29T07:15:19.677Z,-3.03
2023-01-29T07:18:00.696Z,-2.96
2023-01-29T07:20:29.322Z,-2.92
2023-01-29T07:22:57.734Z,-2.90
2023-01-29T07:25:26.054Z,-2.92
2023-01-29T07:27:54.198Z,-2.92
2023-01-29T07:30:22.281Z,-2.89
2023-01-29T07:32:50.304Z,-2.86
2023-01-29T07:35:19.354Z,-2.82
2023-01-29T07:37:51.062Z,-2.77
2023-01-29T07:40:23.388Z,-2.70
2023-01-29T07:42:51.601Z,-2.65
2023-01-29T07:45:19.694Z,-2.60
2023-01-29T07:47:52.705Z,-2.58
2023-01-29T07:50:22.371Z,-2.55
2023-01-29T07:52:50.367Z,-2.53
2023-01-29T07:55:18.691Z,-2.50
2023-01-29T07:57:48.133Z,-2.47
2023-01-29T08:00:17.230Z,-2.39
2023-01-29T08:02:45.420Z,-2.28
2023-01-29T08:05:13.482Z,-2.20
2023-01-29T08:07:42.390Z,-2.17
2023-01-29T08:10:11.614Z,-2.15
2023-01-29T08:12:41.353Z,-2.14
2023-01-29T08:15:09.943Z,-2.13
2023-01-29T08:17:52.526Z,-2.14
2023-01-29T08:20:25.737Z,-2.12
2023-01-29T08:23:05.160Z,-2.06
2023-01-29T08:25:34.347Z,-1.97
2023-01-29T08:28:02.852Z,-1.90
2023-01-29T08:30:32.661Z,-1.84
2023-01-29T08:33:00.926Z,-1.82
2023-01-29T08:35:29.535Z,-1.81
2023-01-29T08:38:03.371Z,-1.81
2023-01-29T08:40:33.965Z,-1.79
2023-01-29T08:43:07.868Z,-1.74
2023-01-29T08:45:38.870Z,-1.68
2023-01-29T08:48:07.040Z,-1.63
2023-01-29T08:50:35.492Z,-1.59
2023-01-29T08:53:09.624Z,-1.55
2023-01-29T08:55:38.977Z,-1.51
2023-01-29T08:58:08.085Z,-1.47
2023-01-29T09:00:37.457Z,-1.44
2023-01-29T09:03:08.247Z,-1.40
2023-01-29T09:05:37.825Z,-1.39
2023-01-29T09:08:06.743Z,-1.34
2023-01-29T09:10:35.271Z,-1.29
2023-01-29T09:13:03.679Z,-1.23
2023-01-29T09:15:31.697Z,-1.20
2023-01-29T09:18:04.115Z,-1.17
2023-01-29T09:20:34.122Z,-1.14
2023-01-29T09:23:07.097Z,-1.10
2023-01-29T09:25:35.665Z,-1.09
2023-01-29T09:28:04.179Z,-1.08
2023-01-29T09:30:34.845Z,-1.06
2023-01-29T09:33:04.568Z,-1.03
2023-01-29T09:35:32.729Z,-1.07
2023-01-29T09:38:01.182Z,-1.10
2023-01-29T09:41:05.157Z,-1.12
2023-01-29T09:43:41.032Z,-1.09
2023-01-29T09:46:36.715Z,-1.04
2023-01-29T09:49:13.508Z,-0.94
2023-01-29T09:51:51.510Z,-0.83
2023-01-29T14:07:44.026Z,-0.49
2023-01-29T14:10:17.523Z,-0.49
2023-01-29T14:13:11.687Z,-0.46
2023-01-29T14:15:40.279Z,-0.41
2023-01-29T14:18:09.209Z,-0.33
2023-01-29T14:20:49.053Z,-0.24
2023-01-29T14:23:46.188Z,-0.11
2023-01-29T14:26:47.838Z,0.02
2023-01-29T14:29:33.933Z,0.09
2023-01-29T14:32:06.128Z,0.11
2023-01-29T14:34:36.475Z,0.09
2023-01-29T14:37:28.003Z,0.12
2023-01-29T14:39:57.851Z,0.14
2023-01-29T14:42:43.837Z,0.17
2023-01-29T14:45:34.495Z,0.22
2023-01-29T14:48:11.873Z,0.28
2023-01-29T14:50:43.073Z,0.28
2023-01-29T14:53:33.245Z,0.25
2023-01-29T14:56:03.978Z,0.25
2023-01-29T14:58:36.329Z,0.23
2023-01-29T15:01:06.262Z,0.20
2023-01-29T15:03:42.512Z,0.17
2023-01-29T15:06:15.753Z,0.17
2023-01-29T15:09:14.777Z,0.20
2023-01-29T15:11:47.324Z,0.25
2023-01-29T15:14:16.837Z,0.28
2023-01-29T15:17:10.298Z,0.30
2023-01-29T15:19:45.048Z,0.28
2023-01-29T15:22:23.323Z,0.26
2023-01-29T15:25:47.002Z,0.21
2023-01-29T15:28:15.074Z,0.17
2023-01-29T15:30:45.106Z,0.18
2023-01-29T15:33:13.879Z,0.20
2023-01-29T15:35:42.068Z,0.21
2023-01-29T15:38:22.796Z,0.23
2023-01-29T15:41:01.373Z,0.21
2023-01-29T15:43:43.080Z,0.17
2023-01-29T15:46:15.894Z,0.13
2023-01-29T15:48:45.567Z,0.08
2023-01-29T15:51:16.657Z,0.05
2023-01-29T15:54:00.170Z,0.04
2023-01-29T15:56:55.596Z,0.06
2023-01-29T15:59:44.278Z,0.07
2023-01-29T16:02:39.534Z,0.08
2023-01-29T16:05:23.171Z,0.04
2023-01-29T16:07:53.671Z,-0.00
2023-01-29T16:10:24.722Z,-0.01
2023-01-29T16:12:53.649Z,-0.02
2023-01-29T16:15:36.207Z,-0.02
2023-01-29T16:18:22.057Z,0.00
2023-01-29T16:20:54.515Z,0.01
2023-01-29T16:23:30.613Z,-0.00
2023-01-29T16:26:02.958Z,-0.02
2023-01-29T16:28:31.986Z,-0.05
2023-01-29T16:31:02.803Z,-0.08
2023-01-29T16:33:38.958Z,-0.12
2023-01-29T16:36:23.431Z,-0.13
2023-01-29T16:39:00.652Z,-0.14
2023-01-29T16:41:32.063Z,-0.11
2023-01-29T16:44:10.125Z,-0.09
2023-01-29T16:46:45.685Z,-0.07
2023-01-29T16:49:40.325Z,-0.10
2023-01-29T16:52:27.261Z,-0.15
2023-01-29T16:55:13.599Z,-0.21
2023-01-29T16:57:42.165Z,-0.27
2023-01-29T17:00:30.118Z,-0.27
2023-01-29T17:03:04.899Z,-0.27
2023-01-29T17:05:36.036Z,-0.27
2023-01-29T17:08:04.780Z,-0.27
2023-01-29T17:10:36.204Z,-0.27
2023-01-29T17:13:09.467Z,-0.29
2023-01-29T17:15:47.082Z,-0.34
2023-01-29T17:18:25.753Z,-0.38
2023-01-29T17:20:53.985Z,-0.39
2023-01-29T17:23:23.333Z,-0.37
2023-01-29T17:25:52.064Z,-0.35
2023-01-29T17:28:20.471Z,-0.34
2023-01-29T17:31:05.005Z,-0.35
2023-01-29T17:33:35.701Z,-0.35
2023-01-29T17:36:04.072Z,-0.37
2023-01-29T17:38:33.089Z,-0.40
2023-01-29T17:41:20.271Z,-0.42
2023-01-29T17:43:50.314Z,-0.47
2023-01-29T17:46:18.858Z,-0.49
2023-01-29T17:48:47.103Z,-0.49
2023-01-29T21:58:14.730Z,-1.43
2023-01-29T22:00:42.909Z,-1.46
2023-01-29T22:03:12.346Z,-1.43
2023-01-29T22:05:40.556Z,-1.38
2023-01-29T22:08:10.214Z,-1.30
2023-01-29T22:10:39.046Z,-1.21
2023-01-29T22:13:08.060Z,-1.13
2023-01-29T22:15:40.781Z,-1.09
2023-01-29T22:18:09.178Z,-1.06
2023-01-29T22:20:37.432Z,-1.04
2023-01-29T22:23:05.672Z,-1.04
2023-01-29T22:25:34.285Z,-1.03
2023-01-29T22:28:02.660Z,-1.02
2023-01-29T22:30:30.755Z,-1.03
2023-01-29T22:32:59.018Z,-1.04
2023-01-29T22:35:27.420Z,-1.07
2023-01-29T22:37:55.542Z,-1.07
2023-01-29T22:40:23.522Z,-1.04
2023-01-29T22:42:51.847Z,-1.01
2023-01-29T22:45:19.846Z,-0.96
2023-01-29T22:47:50.919Z,-0.92
2023-01-29T22:50:19.715Z,-0.92
2023-01-29T22:52:54.256Z,-0.95
2023-01-29T22:55:23.897Z,-0.99
2023-01-29T22:57:53.525Z,-1.02
2023-01-29T23:00:21.662Z,-1.03
2023-01-29T23:02:49.983Z,-1.06
2023-01-29T23:05:18.354Z,-1.07
2023-01-29T23:07:46.527Z,-1.09
2023-01-29T23:10:15.000Z,-1.11
2023-01-29T23:12:43.230Z,-1.11
2023-01-29T23:15:11.304Z,-1.08
2023-01-29T23:17:39.799Z,-1.03
2023-01-29T23:20:08.739Z,-0.97
2023-01-29T23:22:37.362Z,-0.92
2023-01-29T23:25:05.863Z,-0.85
2023-01-29T23:27:34.488Z,-0.79
2023-01-29T23:30:02.744Z,-0.76
2023-01-29T23:32:31.311Z,-0.75
2023-01-29T23:34:59.252Z,-0.74
2023-01-29T23:37:27.571Z,-0.78
2023-01-29T23:39:55.592Z,-0.84
2023-01-29T23:42:23.744Z,-0.85
2023-01-29T23:44:52.579Z,-0.89
2023-01-29T23:47:21.004Z,-0.93
2023-01-29T23:49:49.255Z,-0.94
2023-01-29T23:52:17.611Z,-0.94
2023-01-29T23:54:45.602Z,-0.92
2023-01-29T23:57:13.779Z,-0.91
2023-01-29T23:59:44.678Z,-0.90
